createdAt,value
2023-01-12T00:00:11.268Z,99.90
2023-01-12T00:02:16.393Z,99.90
2023-01-12T00:04:20.153Z,99.90
2023-01-12T00:06:24.669Z,99.90
2023-01-12T00:08:27.971Z,99.90
2023-01-12T00:10:31.379Z,99.90
2023-01-12T00:12:34.784Z,99.90
2023-01-12T00:14:39.389Z,99.90
2023-01-12T00:16:43.488Z,99.90
2023-01-12T00:18:46.993Z,99.90
2023-01-12T00:20:51.425Z,99.90
2023-01-12T00:22:54.788Z,99.90
2023-01-12T00:24:58.166Z,99.90
2023-01-12T00:27:04.116Z,99.90
2023-01-12T00:29:07.511Z,99.90
2023-01-12T00:31:12.682Z,99.90
2023-01-12T00:33:17.417Z,99.90
2023-01-12T00:35:20.660Z,99.90
2023-01-12T00:37:24.052Z,99.90
2023-01-12T00:39:27.563Z,99.90
2023-01-12T00:41:48.156Z,99.90
2023-01-12T00:44:23.173Z,99.90
2023-01-12T00:46:31.718Z,99.90
2023-01-12T00:48:36.615Z,99.90
2023-01-12T00:50:40.211Z,99.90
2023-01-12T00:52:43.709Z,99.90
2023-01-12T00:54:50.692Z,99.90
2023-01-12T00:56:53.973Z,99.90
2023-01-12T00:58:57.401Z,99.90
2023-01-12T01:01:07.204Z,99.90
2023-01-12T01:03:10.601Z,99.90
2023-01-12T01:05:15.784Z,99.90
2023-01-12T01:07:21.932Z,99.90
2023-01-12T01:09:25.434Z,99.90
2023-01-12T01:11:28.890Z,99.90
2023-01-12T01:13:32.376Z,99.90
2023-01-12T01:15:35.742Z,99.90
2023-01-12T01:17:39.079Z,99.90
2023-01-12T01:19:43.488Z,99.90
2023-01-12T01:21:48.355Z,99.90
2023-01-12T01:23:52.003Z,99.90
2023-01-12T01:25:55.537Z,99.90
2023-01-12T01:27:58.731Z,99.90
2023-01-12T01:30:01.991Z,99.90
2023-01-12T01:32:05.367Z,99.90
2023-01-12T01:34:08.654Z,99.90
2023-01-12T01:36:12.898Z,99.90
2023-01-12T01:38:17.716Z,99.90
2023-01-12T01:40:21.348Z,99.90
2023-01-12T01:42:29.618Z,99.90
2023-01-12T01:44:54.837Z,99.90
2023-01-12T01:47:01.574Z,99.90
2023-01-12T01:49:26.188Z,99.90
2023-01-12T01:51:29.684Z,99.90
2023-01-12T01:53:37.390Z,99.90
2023-01-12T01:55:48.447Z,99.90
2023-01-12T01:57:56.396Z,99.90
2023-01-12T02:00:00.872Z,99.90
2023-01-12T02:02:05.295Z,99.90
2023-01-12T02:04:09.683Z,99.90
2023-01-12T02:06:13.578Z,99.90
2023-01-12T02:08:23.124Z,99.90
2023-01-12T02:10:27.833Z,99.90
2023-01-12T02:12:48.898Z,99.90
2023-01-12T02:15:10.440Z,99.90
2023-01-12T02:17:30.165Z,99.90
2023-01-12T02:20:06.824Z,99.90
2023-01-12T02:22:37.661Z,99.90
2023-01-12T02:25:07.209Z,99.90
2023-01-12T02:27:49.194Z,99.90
2023-01-12T02:30:38.284Z,99.90
2023-01-12T02:32:50.343Z,99.90
2023-01-12T02:35:03.332Z,99.90
2023-01-12T02:37:15.741Z,99.90
2023-01-12T02:39:25.476Z,99.90
2023-01-12T02:41:52.114Z,99.90
2023-01-12T02:43:56.021Z,99.90
2023-01-12T02:46:11.498Z,99.90
2023-01-12T02:48:24.538Z,99.90
2023-01-12T02:50:34.759Z,99.90
2023-01-12T02:52:38.101Z,99.90
2023-01-12T02:54:44.207Z,99.90
2023-01-12T02:56:50.794Z,99.90
2023-01-12T02:58:58.164Z,99.90
2023-01-12T03:01:03.827Z,99.90
2023-01-12T03:03:07.339Z,99.90
2023-01-12T03:05:12.225Z,99.90
2023-01-12T03:07:42.562Z,99.90
2023-01-12T03:09:49.133Z,99.90
2023-01-12T03:11:56.604Z,99.90
2023-01-12T03:14:03.476Z,99.90
2023-01-12T03:16:10.130Z,99.90
2023-01-12T03:18:16.824Z,99.90
2023-01-12T03:20:25.939Z,99.90
2023-01-12T03:22:30.624Z,99.90
2023-01-12T03:24:38.876Z,99.90
2023-01-12T03:26:47.952Z,99.90
2023-01-12T03:28:56.302Z,99.90
2023-01-12T03:31:07.803Z,99.90
2023-01-12T03:33:12.044Z,99.90
2023-01-12T03:35:15.698Z,99.90
2023-01-12T03:37:28.420Z,99.90
2023-01-12T03:39:38.661Z,99.90
2023-01-12T03:41:52.987Z,99.90
2023-01-12T03:44:02.343Z,99.90
2023-01-12T03:46:12.107Z,99.90
2023-01-12T03:48:20.102Z,99.90
2023-01-12T03:50:28.293Z,99.90
2023-01-12T03:52:35.361Z,99.90
2023-01-12T03:54:40.292Z,99.90
2023-01-12T03:56:45.631Z,99.90
2023-01-12T03:58:49.859Z,99.90
2023-01-12T04:00:53.505Z,99.90
2023-01-12T04:03:04.950Z,99.90
2023-01-12T04:05:13.848Z,99.90
2023-01-12T04:07:17.137Z,99.90
2023-01-12T04:09:22.915Z,99.90
2023-01-12T04:11:43.789Z,99.90
2023-01-12T04:13:47.091Z,99.90
2023-01-12T04:15:50.819Z,99.90
2023-01-12T04:17:54.164Z,99.90
2023-01-12T04:19:57.518Z,99.90
2023-01-12T04:22:18.467Z,99.90
2023-01-12T04:24:23.235Z,99.90
2023-01-12T04:26:26.506Z,99.90
2023-01-12T04:28:29.727Z,99.90
2023-01-12T04:30:34.437Z,99.90
2023-01-12T04:32:37.905Z,99.90
2023-01-12T04:34:41.582Z,99.90
2023-01-12T04:36:44.924Z,99.90
2023-01-12T04:38:48.167Z,99.90
2023-01-12T04:40:56.591Z,99.90
2023-01-12T04:43:07.443Z,99.90
2023-01-12T04:45:12.159Z,99.90
2023-01-12T04:47:15.380Z,99.90
2023-01-12T04:49:19.273Z,99.90
2023-01-12T04:51:22.549Z,99.90
2023-01-12T04:53:26.419Z,99.90
2023-01-12T04:55:33.250Z,99.90
2023-01-12T04:57:38.380Z,99.90
2023-01-12T04:59:41.758Z,99.90
2023-01-12T05:01:45.283Z,99.90
2023-01-12T05:03:48.826Z,99.90
2023-01-12T05:05:52.104Z,99.90
2023-01-12T05:08:18.015Z,99.90
2023-01-12T05:10:24.148Z,99.90
2023-01-12T05:12:27.501Z,99.90
2023-01-12T05:14:32.228Z,99.90
2023-01-12T05:16:35.677Z,99.90
2023-01-12T05:18:39.235Z,99.90
2023-01-12T05:20:42.548Z,99.90
2023-01-12T05:22:45.757Z,99.90
2023-01-12T05:24:49.144Z,99.90
2023-01-12T05:26:52.577Z,99.90
2023-01-12T05:28:55.873Z,99.90
2023-01-12T05:31:05.586Z,99.90
2023-01-12T05:33:15.815Z,99.90
2023-01-12T05:35:19.517Z,99.90
2023-01-12T05:37:22.690Z,99.90
2023-01-12T05:39:25.933Z,99.90
2023-01-12T05:41:29.228Z,99.90
2023-01-12T05:43:50.422Z,99.90
2023-01-12T05:45:53.796Z,99.90
2023-01-12T05:48:02.303Z,99.90
2023-01-12T05:50:07.022Z,99.90
2023-01-12T05:52:10.222Z,99.90
2023-01-12T05:54:13.621Z,99.90
2023-01-12T05:56:20.025Z,99.90
2023-01-12T05:58:23.805Z,99.90
2023-01-12T06:00:27.129Z,99.90
2023-01-12T06:02:30.558Z,99.90
2023-01-12T06:04:35.643Z,99.90
2023-01-12T06:06:38.928Z,99.90
2023-01-12T06:08:42.472Z,99.90
2023-01-12T06:10:46.096Z,99.90
2023-01-12T06:13:09.545Z,99.90
2023-01-12T06:15:13.619Z,99.90
2023-01-12T06:17:16.830Z,99.90
2023-01-12T06:19:20.083Z,99.90
2023-01-12T06:21:25.357Z,99.90
2023-01-12T06:23:35.326Z,99.90
2023-01-12T06:25:39.197Z,99.90
2023-01-12T06:27:42.731Z,99.90
2023-01-12T06:29:50.028Z,99.90
2023-01-12T06:31:53.538Z,99.90
2023-01-12T06:33:57.020Z,99.90
2023-01-12T06:36:00.760Z,99.90
2023-01-12T06:38:05.485Z,99.90
2023-01-12T06:40:10.209Z,99.90
2023-01-12T06:42:32.955Z,99.90
2023-01-12T06:44:36.250Z,99.90
2023-01-12T06:46:39.562Z,99.90
2023-01-12T06:48:43.024Z,99.90
2023-01-12T06:50:46.268Z,99.90
2023-01-12T06:52:50.234Z,99.90
2023-01-12T06:54:55.301Z,99.90
2023-01-12T06:56:58.660Z,99.90
2023-01-12T06:59:01.999Z,99.90
2023-01-12T07:01:06.057Z,99.90
2023-01-12T07:03:14.091Z,99.90
2023-01-12T07:05:17.884Z,99.90
2023-01-12T07:07:21.085Z,99.90
2023-01-12T07:09:24.474Z,99.90
2023-01-12T07:11:29.267Z,99.90
2023-01-12T07:13:33.187Z,99.90
2023-01-12T07:15:36.538Z,99.90
2023-01-12T07:17:40.236Z,99.90
2023-01-12T07:19:43.537Z,99.90
2023-01-12T07:21:46.877Z,99.90
2023-01-12T07:23:50.133Z,99.90
2023-01-12T07:25:53.503Z,99.90
2023-01-12T07:27:59.259Z,99.90
2023-01-12T07:30:02.541Z,99.90
2023-01-12T07:32:06.367Z,99.90
2023-01-12T07:34:09.633Z,99.90
2023-01-12T07:36:13.358Z,99.90
2023-01-12T07:38:16.617Z,99.90
2023-01-12T07:40:20.131Z,99.90
2023-01-12T07:42:26.184Z,99.90
2023-01-12T07:44:30.890Z,99.90
2023-01-12T07:46:35.235Z,99.90
2023-01-12T07:48:38.793Z,99.90
2023-01-12T07:50:42.170Z,99.90
2023-01-12T07:52:45.446Z,99.90
2023-01-12T07:54:48.650Z,99.90
2023-01-12T07:56:52.236Z,99.90
2023-01-12T07:58:55.478Z,99.90
2023-01-12T08:01:02.259Z,99.90
2023-01-12T08:03:09.614Z,99.90
2023-01-12T08:05:12.839Z,99.90
2023-01-12T08:07:16.573Z,99.90
2023-01-12T08:09:19.983Z,99.90
2023-01-12T08:11:23.911Z,99.90
2023-01-12T08:13:27.175Z,99.90
2023-01-12T08:15:36.430Z,99.90
2023-01-12T08:17:45.257Z,99.90
2023-01-12T08:19:52.302Z,99.90
2023-01-12T08:22:00.216Z,99.90
2023-01-12T08:24:07.383Z,99.90
2023-01-12T08:26:16.378Z,99.90
2023-01-12T08:28:24.610Z,99.90
2023-01-12T08:30:30.089Z,99.90
2023-01-12T08:32:37.654Z,99.90
2023-01-12T08:34:45.119Z,99.90
2023-01-12T08:36:48.454Z,99.90
2023-01-12T08:38:51.821Z,99.90
2023-01-12T08:41:12.692Z,99.90
2023-01-12T08:43:35.953Z,99.90
2023-01-12T08:45:39.401Z,99.90
2023-01-12T08:47:44.595Z,99.90
2023-01-12T08:49:49.786Z,99.90
2023-01-12T08:51:56.505Z,99.90
2023-01-12T08:54:01.851Z,99.90
2023-01-12T08:56:06.439Z,99.00
2023-01-12T08:58:10.898Z,95.70
2023-01-12T09:00:15.147Z,92.10
2023-01-12T09:02:18.488Z,89.80
2023-01-12T09:04:21.851Z,81.50
2023-01-12T09:06:28.602Z,71.80
2023-01-12T09:08:31.849Z,62.70
2023-01-12T09:10:35.157Z,60.90
2023-01-12T09:12:38.367Z,57.20
2023-01-12T09:14:41.610Z,55.60
2023-01-12T09:16:45.136Z,56.00
2023-01-12T09:18:51.912Z,55.00
2023-01-12T09:21:02.321Z,49.60
2023-01-12T09:23:07.080Z,49.10
2023-01-12T09:25:12.683Z,46.60
2023-01-12T09:27:16.029Z,46.40
2023-01-12T09:29:19.380Z,48.70
2023-01-12T09:31:24.286Z,44.60
2023-01-12T09:33:27.724Z,43.10
2023-01-12T09:35:32.100Z,43.80
2023-01-12T09:37:35.445Z,44.70
2023-01-12T09:45:03.009Z,43.40
2023-01-12T09:47:10.968Z,45.90
2023-01-12T09:49:15.327Z,45.40
2023-01-12T09:51:26.911Z,47.80
2023-01-12T09:53:34.293Z,43.80
2023-01-12T09:55:44.673Z,47.70
2023-01-12T09:58:12.021Z,47.50
2023-01-12T10:00:18.670Z,45.80
2023-01-12T10:02:22.104Z,37.70
2023-01-12T10:04:26.308Z,38.60
2023-01-12T10:06:30.359Z,38.80
2023-01-12T10:08:37.428Z,39.20
2023-01-12T10:10:42.709Z,39.50
2023-01-12T10:12:51.219Z,40.90
2023-01-12T10:15:27.334Z,44.30
2023-01-12T10:17:50.538Z,42.60
2023-01-12T10:20:02.849Z,43.80
2023-01-12T10:22:17.763Z,42.90
2023-01-12T10:24:24.295Z,45.20
2023-01-12T10:26:33.156Z,43.80
2023-01-12T10:28:38.206Z,45.30
2023-01-12T10:30:43.203Z,44.10
2023-01-12T10:32:48.505Z,44.10
2023-01-12T10:34:52.799Z,46.20
2023-01-12T10:37:01.407Z,45.60
2023-01-12T10:39:10.184Z,49.00
2023-01-12T10:41:18.153Z,50.30
2023-01-12T10:43:20.924Z,49.50
2023-01-12T10:45:25.926Z,50.10
2023-01-12T10:47:29.319Z,51.00
2023-01-12T10:49:38.424Z,52.90
2023-01-12T10:51:52.334Z,50.60
2023-01-12T10:54:00.079Z,51.20
2023-01-12T10:56:14.241Z,48.50
2023-01-12T10:58:23.862Z,47.60
2023-01-12T11:00:34.283Z,47.80
2023-01-12T11:02:44.589Z,51.20
2023-01-12T11:04:51.638Z,51.10
2023-01-12T11:07:04.833Z,53.10
2023-01-12T11:09:22.668Z,53.30
2023-01-12T11:11:35.115Z,48.60
2023-01-12T11:13:38.577Z,48.60
2023-01-12T11:15:57.679Z,53.40
2023-01-12T11:18:23.787Z,60.00
2023-01-12T11:20:39.762Z,62.90
2023-01-12T11:22:45.757Z,63.30
2023-01-12T11:24:55.459Z,64.30
2023-01-12T11:27:01.957Z,64.80
2023-01-12T11:29:27.223Z,66.90
2023-01-12T11:31:38.501Z,64.40
2023-01-12T11:33:45.502Z,62.70
2023-01-12T11:35:56.139Z,62.30
2023-01-12T11:38:04.776Z,64.00
2023-01-12T11:40:18.404Z,65.30
2023-01-12T11:42:43.994Z,64.90
2023-01-12T11:44:54.490Z,67.00
2023-01-12T11:47:05.935Z,65.40
2023-01-12T11:49:17.527Z,66.40
2023-01-12T11:51:22.299Z,68.00
2023-01-12T11:53:27.418Z,65.80
2023-01-12T11:55:47.197Z,65.10
2023-01-12T11:58:01.910Z,64.20
2023-01-12T12:00:22.402Z,62.50
2023-01-12T12:02:35.525Z,63.50
2023-01-12T12:04:53.126Z,65.20
2023-01-12T12:07:19.823Z,64.70
2023-01-12T12:09:36.181Z,65.80
2023-01-12T12:11:46.371Z,67.00
2023-01-12T12:14:00.108Z,68.00
2023-01-12T12:16:20.252Z,66.80
2023-01-12T12:18:36.986Z,66.90
2023-01-12T12:20:48.364Z,68.30
2023-01-12T12:23:06.375Z,69.00
2023-01-12T12:25:24.840Z,68.70
2023-01-12T12:27:49.952Z,68.80
2023-01-12T12:30:12.902Z,69.30
2023-01-12T12:32:28.890Z,72.20
2023-01-12T12:34:52.250Z,72.10
2023-01-12T12:37:01.885Z,71.40
2023-01-12T12:39:44.056Z,73.10
2023-01-12T12:42:14.225Z,71.80
2023-01-12T12:44:50.926Z,73.90
2023-01-12T12:47:00.622Z,76.60
2023-01-12T12:49:06.400Z,74.20
2023-01-12T12:51:10.361Z,69.50
2023-01-12T12:53:18.701Z,69.80
2023-01-12T12:55:23.329Z,68.10
2023-01-12T12:57:26.686Z,70.30
2023-01-12T12:59:53.381Z,72.60
2023-01-12T13:01:58.414Z,75.80
2023-01-12T13:04:03.353Z,76.80
2023-01-12T13:06:19.802Z,76.10
2023-01-12T13:08:26.754Z,76.90
2023-01-12T13:10:32.892Z,75.10
2023-01-12T13:12:36.643Z,74.50
2023-01-12T13:14:41.476Z,75.90
2023-01-12T13:16:52.129Z,76.30
2023-01-12T13:19:09.745Z,74.10
2023-01-12T13:21:31.485Z,71.70
2023-01-12T13:23:52.266Z,67.10
2023-01-12T13:25:59.280Z,66.50
2023-01-12T13:28:20.768Z,66.50
2023-01-12T13:30:38.761Z,67.00
2023-01-12T13:32:57.550Z,69.50
2023-01-12T13:35:00.846Z,70.70
2023-01-12T13:37:14.436Z,72.80
2023-01-12T13:39:17.974Z,76.00
2023-01-12T13:41:55.626Z,76.10
2023-01-12T13:43:59.835Z,71.70
2023-01-12T13:46:06.514Z,69.10
2023-01-12T13:48:10.757Z,65.50
2023-01-12T13:50:20.945Z,68.90
2023-01-12T13:52:29.829Z,63.70
2023-01-12T13:54:34.920Z,60.00
2023-01-12T13:56:41.156Z,60.10
2023-01-12T13:58:45.082Z,61.30
2023-01-12T14:00:56.806Z,63.40
2023-01-12T14:03:03.047Z,62.80
2023-01-12T14:05:22.885Z,65.00
2023-01-12T14:07:44.996Z,61.90
2023-01-12T14:09:59.130Z,58.90
2023-01-12T14:12:21.427Z,60.60
2023-01-12T14:15:07.520Z,58.80
2023-01-12T14:17:35.317Z,61.50
2023-01-12T14:19:42.160Z,64.30
2023-01-12T14:21:57.865Z,65.80
2023-01-12T14:24:16.917Z,68.50
2023-01-12T14:26:24.405Z,71.20
2023-01-12T14:28:29.589Z,73.60
2023-01-12T14:30:35.126Z,75.30
2023-01-12T14:32:38.571Z,77.80
2023-01-12T14:34:49.874Z,80.80
2023-01-12T14:36:53.366Z,87.70
2023-01-12T14:38:59.763Z,92.70
2023-01-12T14:41:06.459Z,93.60
2023-01-12T14:43:34.876Z,95.90
2023-01-12T14:46:03.561Z,97.30
2023-01-12T14:48:24.883Z,99.30
2023-01-12T14:50:28.329Z,99.90
2023-01-12T14:52:33.216Z,99.90
2023-01-12T14:54:36.708Z,99.90
2023-01-12T14:56:43.131Z,99.90
2023-01-12T14:58:47.733Z,99.90
2023-01-12T15:00:52.620Z,99.90
2023-01-12T15:03:01.281Z,99.90
2023-01-12T15:05:08.293Z,99.90
2023-01-12T15:07:18.875Z,99.90
2023-01-12T15:09:29.377Z,99.90
2023-01-12T15:11:37.849Z,99.90
2023-01-12T15:13:41.298Z,99.90
2023-01-12T15:16:02.085Z,99.90
2023-01-12T15:18:24.445Z,99.90
2023-01-12T15:20:46.367Z,99.90
2023-01-12T15:23:07.040Z,99.90
2023-01-12T15:25:32.625Z,99.90
2023-01-12T15:27:35.954Z,99.90
2023-01-12T15:29:39.608Z,99.90
2023-01-12T15:31:42.963Z,99.90
2023-01-12T15:33:47.823Z,99.90
2023-01-12T15:35:51.257Z,99.90
2023-01-12T15:38:00.341Z,99.90
2023-01-12T15:40:04.130Z,99.90
2023-01-12T15:42:20.038Z,99.90
2023-01-12T15:44:23.413Z,99.90
2023-01-12T15:46:26.814Z,99.90
2023-01-12T15:48:30.205Z,99.90
2023-01-12T15:50:37.273Z,99.90
2023-01-12T15:52:44.257Z,99.90
2023-01-12T15:54:47.447Z,99.90
2023-01-12T15:56:50.785Z,99.90
2023-01-12T15:58:54.302Z,99.90
2023-01-12T16:00:59.033Z,99.90
2023-01-12T16:03:02.865Z,99.90
2023-01-12T16:05:07.569Z,99.90
2023-01-12T16:07:12.322Z,99.90
2023-01-12T16:09:15.900Z,99.90
2023-01-12T16:11:24.535Z,99.90
2023-01-12T16:13:33.445Z,99.90
2023-01-12T16:15:36.882Z,99.90
2023-01-12T16:17:40.191Z,99.90
2023-01-12T16:19:44.171Z,99.90
2023-01-12T16:21:47.385Z,99.90
2023-01-12T16:23:52.491Z,99.90
2023-01-12T16:25:57.948Z,99.90
2023-01-12T16:28:01.573Z,99.90
2023-01-12T16:30:05.786Z,99.90
2023-01-12T16:32:09.556Z,99.90
2023-01-12T16:34:13.093Z,99.90
2023-01-12T16:36:17.088Z,99.90
2023-01-12T16:38:20.384Z,99.90
2023-01-12T16:40:25.308Z,99.90
2023-01-12T16:42:28.815Z,99.90
2023-01-12T16:44:33.034Z,99.90
2023-01-12T16:46:36.747Z,99.90
2023-01-12T16:48:42.014Z,99.90
2023-01-12T16:50:45.887Z,99.90
2023-01-12T16:52:49.248Z,99.90
2023-01-12T16:54:52.540Z,99.90
2023-01-12T16:56:58.201Z,99.90
2023-01-12T16:59:01.542Z,99.90
2023-01-12T17:01:12.086Z,99.90
2023-01-12T17:03:15.719Z,99.90
2023-01-12T17:05:20.448Z,99.90
2023-01-12T17:07:24.219Z,99.90
2023-01-12T17:09:27.734Z,99.90
2023-01-12T17:11:31.568Z,99.90
2023-01-12T17:13:36.739Z,99.90
2023-01-12T17:15:40.423Z,99.90
2023-01-12T17:17:44.037Z,99.90
2023-01-12T17:19:47.530Z,99.90
2023-01-12T17:21:51.978Z,99.90
2023-01-12T17:23:55.472Z,99.90
2023-01-12T17:26:03.537Z,99.90
2023-01-12T17:28:06.759Z,99.90
2023-01-12T17:30:13.107Z,99.90
2023-01-12T17:32:16.701Z,99.90
2023-01-12T17:34:19.982Z,99.90
2023-01-12T17:36:23.236Z,99.90
2023-01-12T17:38:26.783Z,99.90
2023-01-12T17:40:30.053Z,99.90
2023-01-12T17:42:50.816Z,99.90
2023-01-12T17:44:54.408Z,99.90
2023-01-12T17:46:59.100Z,99.90
2023-01-12T17:49:03.848Z,99.90
2023-01-12T17:51:11.786Z,99.90
2023-01-12T17:53:17.460Z,99.90
2023-01-12T17:55:20.940Z,99.90
2023-01-12T17:57:24.151Z,99.90
2023-01-12T17:59:27.539Z,99.90
2023-01-12T18:01:32.420Z,99.90
2023-01-12T18:03:37.629Z,99.90
2023-01-12T18:05:47.067Z,99.90
2023-01-12T18:07:50.456Z,99.90
2023-01-12T18:09:53.901Z,99.90
2023-01-12T18:11:57.780Z,99.90
2023-01-12T18:14:01.828Z,99.90
2023-01-12T18:16:05.668Z,99.90
2023-01-12T18:18:09.057Z,99.90
2023-01-12T18:20:13.946Z,99.90
2023-01-12T18:22:17.584Z,99.90
2023-01-12T18:24:20.931Z,99.90
2023-01-12T18:26:26.286Z,99.90
2023-01-12T18:28:31.082Z,99.90
2023-01-12T18:30:34.588Z,99.90
2023-01-12T18:32:39.680Z,99.90
2023-01-12T18:34:43.712Z,99.90
2023-01-12T18:36:48.879Z,99.90
2023-01-12T18:38:56.725Z,99.90
2023-01-12T18:41:20.504Z,99.90
2023-01-12T18:43:23.825Z,99.90
2023-01-12T18:45:27.315Z,99.90
2023-01-12T18:47:48.328Z,99.90
2023-01-12T18:49:51.878Z,99.90
2023-01-12T18:52:14.775Z,99.90
2023-01-12T18:54:18.115Z,99.90
2023-01-12T18:56:21.630Z,99.90
2023-01-12T18:58:27.152Z,99.90
2023-01-12T19:00:30.493Z,99.90
2023-01-12T19:02:33.866Z,99.90
2023-01-12T19:04:58.283Z,99.90
2023-01-12T19:07:02.932Z,99.90
2023-01-12T19:09:23.946Z,99.90
2023-01-12T19:11:27.225Z,99.90
2023-01-12T19:13:48.150Z,99.90
2023-01-12T19:16:09.125Z,99.90
2023-01-12T19:18:13.534Z,99.90
2023-01-12T19:20:17.484Z,99.90
2023-01-12T19:22:39.907Z,99.90
2023-01-12T19:25:00.782Z,99.90
2023-01-12T19:27:21.935Z,99.90
2023-01-12T19:29:25.189Z,99.90
2023-01-12T19:31:28.585Z,99.90
2023-01-12T19:33:32.139Z,99.90
2023-01-12T19:35:36.829Z,99.90
2023-01-12T19:37:42.822Z,99.90
2023-01-12T19:40:00.863Z,99.90
2023-01-12T19:42:21.865Z,99.90
2023-01-12T19:44:28.795Z,99.90
2023-01-12T19:46:32.121Z,99.90
2023-01-12T19:48:35.500Z,99.90
2023-01-12T19:50:40.264Z,99.90
2023-01-12T19:52:45.996Z,99.90
2023-01-12T19:54:53.400Z,99.90
2023-01-12T19:56:57.193Z,99.90
2023-01-12T19:59:00.451Z,99.90
2023-01-12T20:01:03.791Z,99.90
2023-01-12T20:03:07.485Z,99.90
2023-01-12T20:05:13.473Z,99.90
2023-01-12T20:07:19.234Z,99.90
2023-01-12T20:09:24.833Z,99.90
2023-01-12T20:11:28.074Z,99.90
2023-01-12T20:13:31.813Z,99.90
2023-01-12T20:15:35.233Z,99.90
2023-01-12T20:17:39.242Z,99.90
2023-01-12T20:19:44.082Z,99.90
2023-01-12T20:21:48.079Z,99.90
2023-01-12T20:23:51.434Z,99.90
2023-01-12T20:25:56.336Z,99.90
2023-01-12T20:27:59.688Z,99.90
2023-01-12T20:30:03.173Z,99.90
2023-01-12T20:32:08.538Z,99.90
2023-01-12T20:34:12.155Z,99.90
2023-01-12T20:36:17.602Z,99.90
2023-01-12T20:38:22.664Z,99.90
2023-01-12T20:40:26.041Z,99.90
2023-01-12T20:42:31.970Z,99.90
2023-01-12T20:44:35.549Z,99.90
2023-01-12T20:46:38.902Z,99.90
2023-01-12T20:48:42.890Z,99.90
2023-01-12T20:50:47.029Z,99.90
2023-01-12T20:52:52.734Z,99.90
2023-01-12T20:54:56.353Z,99.90
2023-01-12T20:56:59.921Z,99.90
2023-01-12T20:59:04.718Z,99.90
2023-01-12T21:01:12.548Z,99.90
2023-01-12T21:03:15.891Z,99.90
2023-01-12T21:05:19.501Z,99.90
2023-01-12T21:07:22.845Z,99.90
2023-01-12T21:09:26.329Z,99.90
2023-01-12T21:11:29.807Z,99.90
2023-01-12T21:13:33.326Z,99.90
2023-01-12T21:15:38.131Z,99.90
2023-01-12T21:17:43.027Z,99.90
2023-01-12T21:19:46.360Z,99.90
2023-01-12T21:21:49.737Z,99.90
2023-01-12T21:23:53.332Z,99.90
2023-01-12T21:25:56.700Z,99.90
2023-01-12T21:28:00.074Z,99.90
2023-01-12T21:30:03.581Z,99.90
2023-01-12T21:32:08.350Z,99.90
2023-01-12T21:34:11.696Z,99.90
2023-01-12T21:36:17.987Z,99.90
2023-01-12T21:38:21.402Z,99.90
2023-01-12T21:40:24.742Z,99.90
2023-01-12T21:42:49.228Z,99.90
2023-01-12T21:44:52.520Z,99.90
2023-01-12T21:46:55.843Z,99.90
2023-01-12T21:49:07.248Z,99.90
2023-01-12T21:51:13.550Z,99.90
2023-01-12T21:53:19.364Z,99.90
2023-01-12T21:55:22.747Z,99.90
2023-01-12T21:57:26.312Z,99.90
2023-01-12T21:59:29.624Z,99.90
2023-01-12T22:01:33.280Z,99.90
2023-01-12T22:03:36.629Z,99.90
2023-01-12T22:05:43.737Z,99.90
2023-01-12T22:07:48.358Z,99.90
2023-01-12T22:09:51.603Z,99.90
2023-01-12T22:11:55.046Z,99.90
2023-01-12T22:13:58.228Z,99.90
2023-01-12T22:16:04.284Z,99.90
2023-01-12T22:18:08.088Z,99.90
2023-01-12T22:20:12.714Z,99.90
2023-01-12T22:22:17.486Z,99.90
2023-01-12T22:24:21.186Z,99.90
2023-01-12T22:26:24.417Z,99.90
2023-01-12T22:28:27.713Z,99.90
2023-01-12T22:30:31.002Z,99.90
2023-01-12T22:32:34.308Z,99.90
2023-01-12T22:34:37.744Z,99.90
2023-01-12T22:36:43.235Z,99.90
2023-01-12T22:38:48.257Z,99.90
2023-01-12T22:40:51.596Z,99.90
2023-01-12T22:43:12.259Z,99.90
2023-01-12T22:45:16.086Z,99.90
2023-01-12T22:47:19.292Z,99.90
2023-01-12T22:49:22.807Z,99.90
2023-01-12T22:51:27.719Z,99.90
2023-01-12T22:53:30.966Z,99.90
2023-01-12T22:55:35.694Z,99.90
2023-01-12T22:57:39.001Z,99.90
2023-01-12T22:59:42.734Z,99.90
2023-01-12T23:01:46.195Z,99.90
2023-01-12T23:03:50.010Z,99.90
2023-01-12T23:05:56.420Z,99.90
2023-01-12T23:08:00.158Z,99.90
2023-01-12T23:10:04.734Z,99.90
2023-01-12T23:12:09.562Z,99.90
2023-01-12T23:14:12.770Z,99.90
2023-01-12T23:16:18.168Z,99.90
2023-01-12T23:18:23.529Z,99.90
2023-01-12T23:20:27.436Z,99.90
2023-01-12T23:22:31.730Z,99.90
2023-01-12T23:24:34.979Z,99.90
2023-01-12T23:26:38.267Z,99.90
2023-01-12T23:28:47.516Z,99.90
2023-01-12T23:30:50.797Z,99.90
2023-01-12T23:32:54.185Z,99.90
2023-01-12T23:34:57.469Z,99.90
2023-01-12T23:37:00.830Z,99.90
2023-01-12T23:39:07.223Z,99.90
2023-01-12T23:41:12.052Z,99.90
2023-01-12T23:43:15.485Z,99.90
2023-01-12T23:45:20.210Z,99.90
2023-01-12T23:47:23.504Z,99.90
2023-01-12T23:49:26.778Z,99.90
2023-01-12T23:51:31.346Z,99.90
2023-01-12T23:53:34.625Z,99.90
2023-01-12T23:55:40.386Z,99.90
2023-01-12T23:57:43.592Z,99.90
2023-01-12T23:59:46.874Z,99.90
